createdAt,value
2019-05-25T00:03:33.500Z,4.20
2019-05-25T00:07:57.506Z,4.33
2019-05-25T00:12:21.969Z,4.87
2019-05-25T00:16:46.126Z,4.33
2019-05-25T00:21:13.574Z,4.70
2019-05-25T00:25:35.708Z,4.23
2019-05-25T00:29:59.670Z,4.20
2019-05-25T00:34:23.581Z,3.87
2019-05-25T00:38:47.377Z,4.37
2019-05-25T00:43:11.485Z,4.03
2019-05-25T00:47:35.678Z,4.90
2019-05-25T00:51:59.881Z,5.50
2019-05-25T00:56:23.763Z,3.77
2019-05-25T01:00:47.898Z,4.43
2019-05-25T01:05:12.469Z,4.40
2019-05-25T01:09:36.270Z,4.63
2019-05-25T01:14:00.533Z,4.47
2019-05-25T01:18:24.569Z,5.57
2019-05-25T01:22:48.372Z,4.60
2019-05-25T01:27:13.554Z,4.33
2019-05-25T01:31:37.399Z,4.10
2019-05-25T01:36:01.222Z,4.87
2019-05-25T01:40:25.091Z,4.73
2019-05-25T01:44:48.885Z,5.40
2019-05-25T01:49:12.858Z,4.70
2019-05-25T01:53:36.666Z,4.60
2019-05-25T01:58:00.638Z,4.33
2019-05-25T02:02:24.451Z,4.97
2019-05-25T02:06:48.433Z,4.10
2019-05-25T02:11:12.449Z,5.10
2019-05-25T02:15:36.975Z,7.30
2019-05-25T02:20:00.784Z,6.90
2019-05-25T02:24:24.847Z,6.73
2019-05-25T02:28:49.023Z,6.20
2019-05-25T02:33:13.380Z,6.00
2019-05-25T02:37:37.640Z,4.97
2019-05-25T02:42:01.651Z,5.67
2019-05-25T02:46:25.573Z,5.23
2019-05-25T02:50:52.957Z,5.83
2019-05-25T02:55:32.475Z,6.53
2019-05-25T02:59:41.881Z,6.30
2019-05-25T03:04:06.145Z,5.73
2019-05-25T03:08:30.866Z,6.13
2019-05-25T03:12:55.625Z,6.33
2019-05-25T03:17:19.671Z,6.83
2019-05-25T03:21:43.821Z,7.20
2019-05-25T03:26:07.591Z,5.53
2019-05-25T03:30:34.111Z,7.97
2019-05-25T03:34:58.634Z,7.67
2019-05-25T03:39:22.546Z,6.47
2019-05-25T03:43:46.546Z,5.97
2019-05-25T03:48:10.677Z,6.22
2019-05-25T03:52:34.651Z,6.73
2019-05-25T03:56:58.569Z,6.33
2019-05-25T04:01:22.684Z,7.77
2019-05-25T04:05:46.571Z,7.63
2019-05-25T04:10:11.213Z,10.53
2019-05-25T04:14:35.204Z,9.17
2019-05-25T04:18:59.359Z,8.63
2019-05-25T04:23:23.482Z,11.95
2019-05-25T04:27:47.773Z,9.00
2019-05-25T04:32:13.078Z,7.97
2019-05-25T04:36:36.885Z,8.23
2019-05-25T04:41:00.710Z,7.20
2019-05-25T04:45:24.997Z,7.63
2019-05-25T04:49:49.145Z,7.93
2019-05-25T04:54:13.565Z,7.92
2019-05-25T04:58:37.490Z,7.23
2019-05-25T05:03:01.934Z,8.10
2019-05-25T05:07:25.805Z,7.80
2019-05-25T05:11:49.614Z,6.60
2019-05-25T05:16:13.776Z,5.65
2019-05-25T05:20:37.790Z,6.10
2019-05-25T05:25:01.816Z,6.47
2019-05-25T05:29:25.849Z,5.80
2019-05-25T05:33:49.755Z,5.70
2019-05-25T05:38:14.563Z,6.13
2019-05-25T05:42:39.907Z,6.07
2019-05-25T05:47:04.403Z,7.73
2019-05-25T05:51:29.627Z,12.93
2019-05-25T05:55:53.531Z,6.13
2019-05-25T06:00:18.368Z,5.55
2019-05-25T06:04:42.222Z,4.80
2019-05-25T06:09:07.293Z,5.83
2019-05-25T06:13:31.164Z,5.40
2019-05-25T06:17:54.974Z,5.80
2019-05-25T06:22:19.452Z,5.55
2019-05-25T06:26:43.476Z,6.40
2019-05-25T06:31:07.584Z,6.13
2019-05-25T06:35:31.761Z,5.58
2019-05-25T06:39:55.926Z,5.77
2019-05-25T06:44:20.039Z,5.37
2019-05-25T06:48:43.869Z,5.30
2019-05-25T06:53:07.770Z,4.80
2019-05-25T06:57:42.502Z,4.97
2019-05-25T07:01:57.649Z,5.30
2019-05-25T07:06:21.626Z,4.80
2019-05-25T07:10:45.613Z,5.53
2019-05-25T07:15:10.163Z,4.70
2019-05-25T07:19:34.258Z,4.67
2019-05-25T07:23:59.409Z,4.80
2019-05-25T07:28:23.989Z,4.72
2019-05-25T07:32:47.863Z,4.40
2019-05-25T07:37:11.675Z,5.60
2019-05-25T07:41:36.171Z,4.90
2019-05-25T07:46:00.013Z,5.77
2019-05-25T07:50:24.065Z,6.37
2019-05-25T07:54:47.875Z,5.57
2019-05-25T07:59:11.980Z,5.40
2019-05-25T08:03:39.171Z,5.57
2019-05-25T08:08:02.213Z,6.17
2019-05-25T08:12:26.977Z,5.73
2019-05-25T08:16:50.794Z,6.37
2019-05-25T08:21:14.921Z,4.92
2019-05-25T08:25:38.798Z,4.60
2019-05-25T08:30:02.611Z,5.40
2019-05-25T08:34:27.581Z,5.20
2019-05-25T08:38:54.686Z,4.23
2019-05-25T08:43:17.354Z,4.80
2019-05-25T08:47:41.278Z,4.97
2019-05-25T08:52:05.922Z,4.67
2019-05-25T08:56:29.781Z,4.83
2019-05-25T09:00:53.645Z,4.73
2019-05-25T09:05:17.633Z,4.17
2019-05-25T09:09:41.655Z,4.17
2019-05-25T09:14:06.040Z,4.80
2019-05-25T09:18:30.217Z,4.47
2019-05-25T09:22:54.304Z,4.30
2019-05-25T09:27:18.114Z,4.47
2019-05-25T09:31:41.913Z,4.67
2019-05-25T09:36:05.938Z,5.17
2019-05-25T09:40:29.751Z,4.90
2019-05-25T09:44:53.550Z,4.93
2019-05-25T09:49:17.669Z,4.80
2019-05-25T09:53:41.991Z,5.10
2019-05-25T09:58:05.869Z,5.50
2019-05-25T10:02:29.810Z,4.93
2019-05-25T10:06:53.992Z,5.70
2019-05-25T10:11:17.884Z,5.10
2019-05-25T10:15:41.859Z,4.97
2019-05-25T10:20:06.189Z,4.73
2019-05-25T10:24:30.977Z,4.80
2019-05-25T10:28:54.797Z,4.40
2019-05-25T10:33:21.750Z,4.97
2019-05-25T10:37:44.360Z,4.47
2019-05-25T10:42:08.521Z,4.55
2019-05-25T10:46:32.492Z,5.07
2019-05-25T10:50:56.321Z,4.40
2019-05-25T10:55:20.626Z,4.50
2019-05-25T10:59:52.899Z,4.47
2019-05-25T11:04:10.485Z,4.50
2019-05-25T11:08:34.731Z,4.40
2019-05-25T11:12:58.538Z,4.60
2019-05-25T11:17:22.613Z,3.70
2019-05-25T11:21:46.435Z,4.27
2019-05-25T11:26:10.555Z,4.30
2019-05-25T11:30:34.608Z,3.60
2019-05-25T11:34:58.501Z,4.00
2019-05-25T11:39:22.366Z,3.95
2019-05-25T11:43:46.194Z,4.27
2019-05-25T11:48:09.993Z,3.87
2019-05-25T11:52:34.010Z,3.63
2019-05-25T11:56:57.821Z,4.10
2019-05-25T12:01:21.630Z,4.33
2019-05-25T12:05:45.525Z,3.87
2019-05-25T12:10:10.501Z,3.20
2019-05-25T12:14:34.692Z,3.37
2019-05-25T12:18:58.747Z,3.93
2019-05-25T12:23:22.683Z,3.40
2019-05-25T12:27:49.426Z,3.97
2019-05-25T12:32:12.760Z,3.60
2019-05-25T12:36:36.911Z,4.13
2019-05-25T12:41:00.953Z,3.60
2019-05-25T12:45:25.478Z,3.35
2019-05-25T12:49:50.907Z,3.73
2019-05-25T12:54:14.784Z,3.83
2019-05-25T12:58:38.590Z,3.43
2019-05-25T13:03:02.462Z,3.63
2019-05-25T13:07:26.531Z,3.30
2019-05-25T13:11:50.406Z,3.83
2019-05-25T13:16:14.593Z,3.27
2019-05-25T13:20:38.370Z,3.17
2019-05-25T13:25:02.292Z,4.37
2019-05-25T13:29:26.582Z,4.30
2019-05-25T13:33:50.530Z,3.77
2019-05-25T13:38:14.626Z,3.10
2019-05-25T13:42:38.453Z,3.50
2019-05-25T13:47:02.414Z,3.43
2019-05-25T13:51:26.716Z,3.43
2019-05-25T13:55:50.534Z,3.03
2019-05-25T14:00:14.938Z,2.87
2019-05-25T14:04:38.740Z,3.10
2019-05-25T14:09:02.601Z,3.10
2019-05-25T14:13:26.528Z,3.00
2019-05-25T14:17:50.322Z,3.20
2019-05-25T14:22:14.419Z,2.60
2019-05-25T14:26:38.612Z,2.90
2019-05-25T14:31:02.506Z,3.20
2019-05-25T14:35:26.444Z,2.37
2019-05-25T14:39:50.386Z,2.77
2019-05-25T14:44:14.729Z,3.10
2019-05-25T14:48:38.544Z,2.97
2019-05-25T14:53:02.587Z,2.53
2019-05-25T14:57:26.379Z,2.73
2019-05-25T15:02:02.067Z,2.77
2019-05-25T15:06:15.781Z,3.00
2019-05-25T15:10:39.723Z,2.50
2019-05-25T15:15:03.928Z,2.70
2019-05-25T15:19:27.737Z,2.90
2019-05-25T15:23:51.531Z,3.27
2019-05-25T15:28:15.751Z,3.17
2019-05-25T15:32:39.550Z,2.90
2019-05-25T15:37:03.444Z,3.37
2019-05-25T15:41:28.365Z,2.63
2019-05-25T15:45:52.161Z,2.90
2019-05-25T15:50:17.210Z,2.80
2019-05-25T15:54:41.439Z,2.67
2019-05-25T15:59:05.879Z,3.13
2019-05-25T16:03:29.690Z,3.03
2019-05-25T16:07:54.631Z,2.80
2019-05-25T16:12:18.499Z,3.37
2019-05-25T16:16:42.373Z,2.70
2019-05-25T16:21:06.464Z,3.00
2019-05-25T16:25:30.559Z,3.47
2019-05-25T16:29:54.623Z,3.10
2019-05-25T16:34:18.524Z,14.63
2019-05-25T16:38:42.364Z,3.73
2019-05-25T16:43:06.454Z,3.40
2019-05-25T16:47:31.504Z,3.43
2019-05-25T16:51:55.332Z,3.07
2019-05-25T16:56:19.679Z,3.10
2019-05-25T17:00:43.698Z,3.20
2019-05-25T17:05:08.162Z,4.40
2019-05-25T17:09:32.605Z,3.70
2019-05-25T17:13:56.460Z,2.83
2019-05-25T17:18:21.528Z,2.90
2019-05-25T17:22:45.339Z,3.47
2019-05-25T17:27:09.811Z,3.60
2019-05-25T17:31:33.619Z,3.30
2019-05-25T17:35:57.644Z,3.10
2019-05-25T17:40:21.600Z,3.33
2019-05-25T17:44:45.477Z,3.37
2019-05-25T17:49:09.659Z,3.40
2019-05-25T17:53:33.560Z,3.43
2019-05-25T17:57:58.569Z,3.00
2019-05-25T18:02:22.668Z,6.42
2019-05-25T18:06:46.625Z,3.27
2019-05-25T18:11:11.800Z,2.60
2019-05-25T18:15:35.758Z,3.80
2019-05-25T18:19:59.829Z,2.80
2019-05-25T18:24:23.881Z,2.83
2019-05-25T18:28:47.772Z,2.90
2019-05-25T18:33:11.674Z,2.92
2019-05-25T18:37:35.543Z,3.03
2019-05-25T18:41:59.356Z,3.30
2019-05-25T18:46:23.488Z,2.70
2019-05-25T18:50:47.553Z,2.77
2019-05-25T18:55:11.650Z,2.70
2019-05-25T18:59:35.702Z,2.63
2019-05-25T19:03:59.503Z,2.90
2019-05-25T19:08:23.798Z,2.70
2019-05-25T19:12:47.610Z,2.90
2019-05-25T19:17:11.671Z,3.67
2019-05-25T19:21:35.477Z,3.10
2019-05-25T19:25:59.621Z,3.00
2019-05-25T19:30:23.798Z,2.77
2019-05-25T19:34:58.919Z,2.60
2019-05-25T19:39:13.415Z,2.80
2019-05-25T19:43:37.458Z,3.80
2019-05-25T19:48:01.584Z,3.67
2019-05-25T19:52:25.592Z,3.90
2019-05-25T19:56:54.809Z,5.50
2019-05-25T20:01:18.640Z,4.43
2019-05-25T20:05:42.554Z,4.17
2019-05-25T20:10:08.309Z,4.57
2019-05-25T20:14:32.317Z,4.10
2019-05-25T20:18:56.375Z,3.63
2019-05-25T20:23:20.537Z,3.63
2019-05-25T20:27:44.334Z,3.10
2019-05-25T20:32:08.425Z,4.13
2019-05-25T20:36:32.886Z,3.80
2019-05-25T20:40:56.689Z,3.80
2019-05-25T20:45:21.194Z,5.10
2019-05-25T20:49:45.279Z,3.90
2019-05-25T20:54:09.093Z,3.80
2019-05-25T20:58:32.900Z,4.10
2019-05-25T21:03:06.217Z,5.87
2019-05-25T21:07:22.198Z,5.30
2019-05-25T21:11:46.280Z,4.00
2019-05-25T21:16:10.372Z,3.83
2019-05-25T21:20:34.479Z,5.50
2019-05-25T21:24:58.274Z,4.60
2019-05-25T21:29:22.359Z,5.47
2019-05-25T21:33:47.456Z,5.00
2019-05-25T21:38:11.819Z,5.00
2019-05-25T21:42:35.662Z,5.10
2019-05-25T21:46:59.719Z,5.00
2019-05-25T21:51:24.613Z,3.77
2019-05-25T21:55:48.592Z,4.53
2019-05-25T22:00:18.311Z,4.93
2019-05-25T22:04:43.730Z,4.50
2019-05-25T22:09:08.505Z,5.40
2019-05-25T22:13:32.300Z,5.03
2019-05-25T22:17:56.329Z,5.17
2019-05-25T22:22:20.492Z,5.08
2019-05-25T22:26:45.524Z,6.17
2019-05-25T22:31:09.534Z,4.95
2019-05-25T22:35:33.384Z,5.37
2019-05-25T22:39:57.518Z,5.40
2019-05-25T22:44:21.475Z,5.00
2019-05-25T22:48:45.329Z,5.80
2019-05-25T22:53:09.396Z,5.60
2019-05-25T22:57:33.414Z,7.60
2019-05-25T23:01:57.682Z,5.87
2019-05-25T23:06:21.632Z,5.90
2019-05-25T23:10:45.417Z,6.03
2019-05-25T23:15:09.805Z,6.70
2019-05-25T23:19:33.861Z,5.87
2019-05-25T23:23:57.674Z,5.83
2019-05-25T23:28:21.474Z,6.20
2019-05-25T23:32:45.531Z,6.20
2019-05-25T23:37:14.830Z,6.37
2019-05-25T23:41:36.107Z,6.80
2019-05-25T23:46:01.239Z,6.47
2019-05-25T23:50:25.182Z,5.83
2019-05-25T23:54:49.045Z,5.63
2019-05-25T23:59:13.341Z,5.27
